Terminal Aerodrome Forecast
Issued by NWS

Home | Current Version | Previous Version | Text Only | Print | Product List | Glossary On
Versions: 1 2 3 4 5 6 7 8 9 10 11 12
570
FTUS43 KOAX 290520
TAFSNY
TAF
KSNY 290520Z 2906/3006 14007KT P6SM SKC
     FM291700 14017G24KT P6SM FEW200
     FM300000 15014KT P6SM SCT200=

USA.gov is the U.S. government's official web portal to all federal, state and local government web resources and services.